createdAt,value
2023-05-14T00:00:58.433Z,78.16
2023-05-14T00:02:00.895Z,77.65
2023-05-14T00:03:02.583Z,77.61
2023-05-14T00:04:05.567Z,77.31
2023-05-14T00:05:08.028Z,76.56
2023-05-14T00:06:10.839Z,76.50
2023-05-14T00:07:12.442Z,76.92
2023-05-14T00:08:14.920Z,76.76
2023-05-14T00:09:17.392Z,76.47
2023-05-14T00:10:20.668Z,76.05
2023-05-14T00:11:23.301Z,75.74
2023-05-14T00:12:24.923Z,75.39
2023-05-14T00:13:27.536Z,75.37
2023-05-14T00:14:29.253Z,77.32
2023-05-14T00:15:33.616Z,78.50
2023-05-14T00:16:37.166Z,78.84
2023-05-14T00:17:39.807Z,77.92
2023-05-14T00:18:41.570Z,78.08
2023-05-14T00:19:44.179Z,78.05
2023-05-14T00:20:45.801Z,77.43
2023-05-14T00:21:48.307Z,76.68
2023-05-14T00:22:49.822Z,78.07
2023-05-14T00:23:52.237Z,78.16
2023-05-14T00:24:53.775Z,77.86
2023-05-14T00:25:56.332Z,77.42
2023-05-14T00:26:57.830Z,77.15
2023-05-14T00:28:00.356Z,77.80
2023-05-14T00:29:01.872Z,78.42
2023-05-14T00:30:06.346Z,78.20
2023-05-14T00:31:07.911Z,77.62
2023-05-14T00:32:11.820Z,78.27
2023-05-14T00:33:13.433Z,78.00
2023-05-14T00:34:15.897Z,77.39
2023-05-14T00:35:17.431Z,78.88
2023-05-14T00:36:19.906Z,78.61
2023-05-14T00:37:21.418Z,78.50
2023-05-14T00:38:27.560Z,79.25
2023-05-14T00:39:29.032Z,79.37
2023-05-14T00:40:31.663Z,79.90
2023-05-14T00:41:33.317Z,79.51
2023-05-14T00:42:35.753Z,81.04
2023-05-14T00:43:38.164Z,82.37
2023-05-14T00:44:39.715Z,84.48
2023-05-14T00:45:42.340Z,85.64
2023-05-14T00:46:44.018Z,85.19
2023-05-14T00:47:48.530Z,85.42
2023-05-14T00:48:50.148Z,86.59
2023-05-14T00:49:52.717Z,87.28
2023-05-14T00:50:54.669Z,87.39
2023-05-14T00:51:59.025Z,87.70
2023-05-14T00:53:00.682Z,86.15
2023-05-14T00:54:03.589Z,85.76
2023-05-14T00:55:06.610Z,86.33
2023-05-14T00:56:09.574Z,86.56
2023-05-14T00:57:11.098Z,85.78
2023-05-14T00:58:14.640Z,85.07
2023-05-14T00:59:16.261Z,85.35
2023-05-14T01:00:19.225Z,85.50
2023-05-14T01:01:21.049Z,86.31
2023-05-14T01:02:24.003Z,86.44
2023-05-14T01:03:27.204Z,87.40
2023-05-14T01:04:30.301Z,87.08
2023-05-14T01:05:39.523Z,85.75
2023-05-14T01:06:52.231Z,86.63
2023-05-14T01:08:02.133Z,87.98
2023-05-14T01:09:14.651Z,86.75
2023-05-14T01:10:23.770Z,85.42
2023-05-14T01:11:29.967Z,85.29
2023-05-14T01:12:39.442Z,85.04
2023-05-14T01:13:53.737Z,87.08
2023-05-14T01:15:03.158Z,87.53
2023-05-14T01:16:05.937Z,88.08
2023-05-14T01:17:12.016Z,87.62
2023-05-14T01:18:16.836Z,87.97
2023-05-14T01:19:31.257Z,88.61
2023-05-14T01:20:32.783Z,88.66
2023-05-14T01:21:38.459Z,87.70
2023-05-14T01:22:40.084Z,86.37
2023-05-14T01:23:42.520Z,85.16
2023-05-14T01:24:44.081Z,84.19
2023-05-14T01:25:46.611Z,83.02
2023-05-14T01:26:48.089Z,82.22
2023-05-14T01:27:58.605Z,82.41
2023-05-14T01:29:04.035Z,83.69
2023-05-14T01:30:14.610Z,82.25
2023-05-14T01:31:20.334Z,83.49
2023-05-14T01:32:24.675Z,85.69
2023-05-14T01:33:29.404Z,86.23
2023-05-14T01:34:32.608Z,86.87
2023-05-14T01:35:34.257Z,85.54
2023-05-14T01:36:38.664Z,83.87
2023-05-14T01:37:42.060Z,82.19
2023-05-14T01:38:47.159Z,81.08
2023-05-14T01:39:50.821Z,80.66
2023-05-14T01:40:54.452Z,80.41
2023-05-14T01:41:56.448Z,79.69
2023-05-14T01:42:59.315Z,79.14
2023-05-14T01:44:01.017Z,78.78
2023-05-14T01:45:04.184Z,78.74
2023-05-14T01:46:05.688Z,79.05
2023-05-14T01:47:08.174Z,79.26
2023-05-14T01:48:09.778Z,79.35
2023-05-14T01:49:12.259Z,79.59
2023-05-14T01:50:13.902Z,80.40
2023-05-14T01:51:16.476Z,80.82
2023-05-14T01:52:21.276Z,80.96
2023-05-14T01:53:24.025Z,81.97
2023-05-14T01:54:25.512Z,81.34
2023-05-14T01:55:27.975Z,81.91
2023-05-14T01:56:29.532Z,81.70
2023-05-14T01:57:32.063Z,81.06
2023-05-14T01:58:33.600Z,81.26
2023-05-14T01:59:36.079Z,82.73
2023-05-14T02:00:38.281Z,83.78
2023-05-14T02:01:40.788Z,83.38
2023-05-14T02:02:42.558Z,83.38
2023-05-14T02:03:45.075Z,83.48
2023-05-14T02:04:46.633Z,83.12
2023-05-14T02:05:49.067Z,82.22
2023-05-14T02:06:51.536Z,82.06
2023-05-14T02:07:54.376Z,81.73
2023-05-14T02:08:56.816Z,81.51
2023-05-14T02:09:58.480Z,81.82
2023-05-14T02:11:00.924Z,82.03
2023-05-14T02:12:02.453Z,81.69
2023-05-14T02:13:04.908Z,82.23
2023-05-14T02:14:06.557Z,82.11
2023-05-14T02:15:10.984Z,81.87
2023-05-14T02:16:12.923Z,82.47
2023-05-14T02:17:16.543Z,82.19
2023-05-14T02:18:18.171Z,83.99
2023-05-14T02:19:20.687Z,85.52
2023-05-14T02:20:22.415Z,86.52
2023-05-14T02:21:25.326Z,87.70
2023-05-14T02:22:27.019Z,87.37
2023-05-14T02:23:40.410Z,86.44
2023-05-14T02:24:43.309Z,85.48
2023-05-14T02:25:45.853Z,84.47
2023-05-14T02:26:47.724Z,84.91
2023-05-14T02:27:50.653Z,83.98
2023-05-14T02:28:52.175Z,83.48
2023-05-14T02:29:56.487Z,84.28
2023-05-14T02:30:58.934Z,84.79
2023-05-14T02:32:01.464Z,84.03
2023-05-14T02:33:03.092Z,83.36
2023-05-14T02:34:07.409Z,83.68
2023-05-14T02:35:09.678Z,84.36
2023-05-14T02:36:12.220Z,84.22
2023-05-14T02:37:13.723Z,84.25
2023-05-14T02:38:16.421Z,83.42
2023-05-14T02:39:19.253Z,83.61
2023-05-14T02:40:21.921Z,83.14
2023-05-14T02:41:23.640Z,82.80
2023-05-14T02:42:26.103Z,82.00
2023-05-14T02:43:27.624Z,81.71
2023-05-14T02:44:31.822Z,81.51
2023-05-14T02:45:33.371Z,81.37
2023-05-14T02:46:36.057Z,81.84
2023-05-14T02:47:38.358Z,81.46
2023-05-14T02:48:40.917Z,81.19
2023-05-14T02:49:42.456Z,81.19
2023-05-14T02:50:44.894Z,81.00
2023-05-14T02:51:46.390Z,80.54
2023-05-14T02:52:48.867Z,81.76
2023-05-14T02:53:50.434Z,81.99
2023-05-14T02:54:54.169Z,81.79
2023-05-14T02:55:55.958Z,81.85
2023-05-14T02:56:58.768Z,81.74
2023-05-14T02:58:00.201Z,81.80
2023-05-14T02:59:02.599Z,82.10
2023-05-14T03:00:05.984Z,81.98
2023-05-14T03:01:09.385Z,82.41
2023-05-14T03:02:11.413Z,81.46
2023-05-14T03:03:14.578Z,82.36
2023-05-14T03:04:16.414Z,82.28
2023-05-14T03:05:18.842Z,82.21
2023-05-14T03:06:20.354Z,82.97
2023-05-14T03:07:22.806Z,83.12
2023-05-14T03:08:24.439Z,83.55
2023-05-14T03:09:26.850Z,83.28
2023-05-14T03:10:29.662Z,83.22
2023-05-14T03:11:32.168Z,83.02
2023-05-14T03:12:33.688Z,83.77
2023-05-14T03:13:36.135Z,83.62
2023-05-14T03:14:37.674Z,82.89
2023-05-14T03:15:40.064Z,83.37
2023-05-14T03:16:42.295Z,83.94
2023-05-14T03:17:45.032Z,83.80
2023-05-14T03:18:46.614Z,83.50
2023-05-14T03:19:49.087Z,83.83
2023-05-14T03:20:50.600Z,83.27
2023-05-14T03:21:53.122Z,83.54
2023-05-14T03:22:56.049Z,83.49
2023-05-14T03:23:58.556Z,83.55
2023-05-14T03:25:00.064Z,83.61
2023-05-14T03:26:04.899Z,83.43
2023-05-14T03:27:06.742Z,82.82
2023-05-14T03:28:09.729Z,83.48
2023-05-14T03:29:11.228Z,83.84
2023-05-14T03:30:14.094Z,84.49
2023-05-14T03:31:15.712Z,85.07
2023-05-14T03:32:18.736Z,84.41
2023-05-14T03:33:21.147Z,84.33
2023-05-14T03:34:23.708Z,83.50
2023-05-14T03:35:25.452Z,83.88
2023-05-14T03:36:28.069Z,84.48
2023-05-14T03:37:29.622Z,84.54
2023-05-14T03:38:32.132Z,84.06
2023-05-14T03:39:33.828Z,84.22
2023-05-14T03:40:36.358Z,84.94
2023-05-14T03:41:39.299Z,85.51
2023-05-14T03:42:41.720Z,85.18
2023-05-14T03:43:43.232Z,84.90
2023-05-14T03:44:46.025Z,84.65
2023-05-14T03:45:48.295Z,84.64
2023-05-14T03:46:50.771Z,84.59
2023-05-14T03:47:52.391Z,84.88
2023-05-14T03:48:54.886Z,84.69
2023-05-14T03:49:56.899Z,84.92
2023-05-14T03:50:59.533Z,84.88
2023-05-14T03:52:01.199Z,84.49
2023-05-14T03:53:03.674Z,84.11
2023-05-14T03:54:05.515Z,84.40
2023-05-14T03:55:08.668Z,84.80
2023-05-14T03:56:10.217Z,85.21
2023-05-14T03:57:14.031Z,85.12
2023-05-14T03:58:15.837Z,84.56
2023-05-14T03:59:18.315Z,83.82
2023-05-14T04:00:20.413Z,83.71
2023-05-14T04:01:22.916Z,83.92
2023-05-14T04:02:24.484Z,84.13
2023-05-14T04:03:27.077Z,83.95
2023-05-14T04:04:28.712Z,84.09
2023-05-14T04:05:31.228Z,84.26
2023-05-14T04:06:33.129Z,84.48
2023-05-14T04:07:35.594Z,84.28
2023-05-14T04:08:37.109Z,83.68
2023-05-14T04:09:39.519Z,83.39
2023-05-14T04:10:41.158Z,83.11
2023-05-14T04:11:43.664Z,82.69
2023-05-14T04:12:46.541Z,82.65
2023-05-14T04:13:49.017Z,83.21
2023-05-14T04:14:50.589Z,83.18
2023-05-14T04:15:53.164Z,83.02
2023-05-14T04:16:54.717Z,82.70
2023-05-14T04:17:57.245Z,82.92
2023-05-14T04:19:00.441Z,82.93
2023-05-14T04:20:03.247Z,82.93
2023-05-14T04:21:05.286Z,82.69
2023-05-14T04:22:07.918Z,82.58
2023-05-14T04:23:09.373Z,82.53
2023-05-14T04:24:11.796Z,82.61
2023-05-14T04:25:13.297Z,83.30
2023-05-14T04:26:15.944Z,85.69
2023-05-14T04:27:21.099Z,85.48
2023-05-14T04:28:24.955Z,86.37
2023-05-14T04:29:26.537Z,87.62
2023-05-14T04:30:29.593Z,89.79
2023-05-14T04:31:31.744Z,90.69
2023-05-14T04:32:34.310Z,89.68
2023-05-14T04:33:35.918Z,89.00
2023-05-14T04:34:38.350Z,87.93
2023-05-14T04:35:39.860Z,87.03
2023-05-14T04:36:42.379Z,85.96
2023-05-14T04:37:43.854Z,85.27
2023-05-14T04:38:46.524Z,84.22
2023-05-14T04:39:47.990Z,83.42
2023-05-14T04:40:50.703Z,83.19
2023-05-14T04:41:52.473Z,83.12
2023-05-14T04:42:55.048Z,82.37
2023-05-14T04:44:00.632Z,81.57
2023-05-14T04:45:05.120Z,81.03
2023-05-14T04:46:06.857Z,82.55
2023-05-14T04:47:09.318Z,82.44
2023-05-14T04:48:10.901Z,81.75
2023-05-14T04:49:13.423Z,81.00
2023-05-14T04:50:15.517Z,80.50
2023-05-14T04:51:18.466Z,80.30
2023-05-14T04:52:20.039Z,80.48
2023-05-14T04:53:22.469Z,82.06
2023-05-14T04:54:24.094Z,82.50
2023-05-14T04:55:27.276Z,82.09
2023-05-14T04:56:28.782Z,81.40
2023-05-14T04:57:31.486Z,82.29
2023-05-14T04:58:35.092Z,81.35
2023-05-14T04:59:39.390Z,81.06
2023-05-14T05:00:41.887Z,81.32
2023-05-14T05:01:43.599Z,82.79
2023-05-14T05:02:46.179Z,82.19
2023-05-14T05:03:47.850Z,82.26
2023-05-14T05:04:50.328Z,82.54
2023-05-14T05:05:52.025Z,81.66
2023-05-14T05:06:54.451Z,82.13
2023-05-14T05:07:56.107Z,80.97
2023-05-14T05:09:00.631Z,79.77
2023-05-14T05:10:04.330Z,78.74
2023-05-14T05:11:06.807Z,80.93
2023-05-14T05:12:09.061Z,79.75
2023-05-14T05:13:11.604Z,79.21
2023-05-14T05:14:13.187Z,78.07
2023-05-14T05:15:17.106Z,77.91
2023-05-14T05:16:18.738Z,77.47
2023-05-14T05:17:21.348Z,77.39
2023-05-14T05:18:22.947Z,76.62
2023-05-14T05:19:35.595Z,76.57
2023-05-14T05:20:37.634Z,76.21
2023-05-14T05:21:40.824Z,76.63
2023-05-14T05:22:42.422Z,76.28
2023-05-14T05:23:44.851Z,75.96
2023-05-14T05:24:48.016Z,76.36
2023-05-14T05:25:51.686Z,75.99
2023-05-14T05:26:53.983Z,76.87
2023-05-14T05:27:56.542Z,76.14
2023-05-14T05:28:58.035Z,75.77
2023-05-14T05:30:02.116Z,76.67
2023-05-14T05:31:06.492Z,76.63
2023-05-14T05:32:08.185Z,76.28
2023-05-14T05:33:11.015Z,75.96
2023-05-14T05:34:12.711Z,76.30
2023-05-14T05:35:15.171Z,76.00
2023-05-14T05:36:16.698Z,75.99
2023-05-14T05:37:19.131Z,76.77
2023-05-14T05:38:20.810Z,76.83
2023-05-14T05:39:23.383Z,78.53
2023-05-14T05:40:25.028Z,77.39
2023-05-14T05:41:27.768Z,76.17
2023-05-14T05:42:29.253Z,77.30
2023-05-14T05:43:33.493Z,76.91
2023-05-14T05:44:35.014Z,76.50
2023-05-14T05:45:37.517Z,76.25
2023-05-14T05:46:40.454Z,75.96
2023-05-14T05:47:42.972Z,76.19
2023-05-14T05:48:45.589Z,76.59
2023-05-14T05:49:47.046Z,75.74
2023-05-14T05:50:50.440Z,75.80
2023-05-14T05:51:51.946Z,74.92
2023-05-14T05:52:54.414Z,74.40
2023-05-14T05:53:56.109Z,74.18
2023-05-14T05:54:58.546Z,73.53
2023-05-14T05:56:01.015Z,73.52
2023-05-14T05:57:02.520Z,73.49
2023-05-14T05:58:04.985Z,73.85
2023-05-14T05:59:06.480Z,74.78
2023-05-14T06:00:13.748Z,76.54
2023-05-14T06:01:15.211Z,75.86
2023-05-14T06:02:20.041Z,75.51
2023-05-14T06:03:22.366Z,74.83
2023-05-14T06:04:24.886Z,73.85
2023-05-14T06:05:26.539Z,73.78
2023-05-14T06:06:29.601Z,74.43
2023-05-14T06:07:31.158Z,73.98
2023-05-14T06:08:33.686Z,74.14
2023-05-14T06:09:35.293Z,74.33
2023-05-14T06:10:40.792Z,74.75
2023-05-14T06:11:42.306Z,74.04
2023-05-14T06:12:44.770Z,73.31
2023-05-14T06:13:46.292Z,73.41
2023-05-14T06:14:48.942Z,73.19
2023-05-14T06:15:50.413Z,73.72
2023-05-14T06:16:52.994Z,73.11
2023-05-14T06:17:55.930Z,73.13
2023-05-14T06:18:59.154Z,72.56
2023-05-14T06:20:00.685Z,73.62
2023-05-14T06:21:03.130Z,73.58
2023-05-14T06:22:05.098Z,75.88
2023-05-14T06:23:07.867Z,76.49
2023-05-14T06:24:09.872Z,75.85
2023-05-14T06:25:12.827Z,74.63
2023-05-14T06:26:14.381Z,74.34
2023-05-14T06:27:16.810Z,73.78
2023-05-14T06:28:18.345Z,74.13
2023-05-14T06:29:20.763Z,73.78
2023-05-14T06:30:22.542Z,72.65
2023-05-14T06:31:25.323Z,71.91
2023-05-14T06:32:26.842Z,71.56
2023-05-14T06:33:31.234Z,72.30
2023-05-14T06:34:33.168Z,73.57
2023-05-14T06:35:35.766Z,74.81
2023-05-14T06:36:38.375Z,75.59
2023-05-14T06:37:39.859Z,75.85
2023-05-14T06:38:42.281Z,75.36
2023-05-14T06:39:49.842Z,75.60
2023-05-14T06:40:52.959Z,76.36
2023-05-14T06:41:54.420Z,75.41
2023-05-14T06:42:56.850Z,75.17
2023-05-14T06:43:58.351Z,74.73
2023-05-14T06:45:00.818Z,75.05
2023-05-14T06:46:02.459Z,74.76
2023-05-14T06:47:08.496Z,74.93
2023-05-14T06:48:10.262Z,76.01
2023-05-14T06:49:14.302Z,75.62
2023-05-14T06:50:15.886Z,75.27
2023-05-14T06:51:18.342Z,74.81
2023-05-14T06:52:19.871Z,74.85
2023-05-14T06:53:22.383Z,74.34
2023-05-14T06:54:23.874Z,73.54
2023-05-14T06:55:26.318Z,74.14
2023-05-14T06:56:28.127Z,74.94
2023-05-14T06:57:30.584Z,74.78
2023-05-14T06:58:32.112Z,75.30
2023-05-14T06:59:34.550Z,74.52
2023-05-14T07:00:36.049Z,74.35
2023-05-14T07:01:38.561Z,74.84
2023-05-14T07:02:40.406Z,76.04
2023-05-14T07:03:42.885Z,75.24
2023-05-14T07:04:46.161Z,74.89
2023-05-14T07:05:48.891Z,74.40
2023-05-14T07:06:50.416Z,73.68
2023-05-14T07:07:52.891Z,73.53
2023-05-14T07:08:54.434Z,73.20
2023-05-14T07:09:56.851Z,70.89
2023-05-14T07:10:58.559Z,70.98
2023-05-14T07:12:00.952Z,70.31
2023-05-14T07:13:03.447Z,69.50
2023-05-14T07:14:05.914Z,68.87
2023-05-14T07:15:08.860Z,68.63
2023-05-14T07:16:11.272Z,68.72
2023-05-14T07:17:12.896Z,68.57
2023-05-14T07:18:15.449Z,68.54
2023-05-14T07:19:17.172Z,67.76
2023-05-14T07:20:22.757Z,68.19
2023-05-14T07:21:26.092Z,68.19
2023-05-14T07:22:27.891Z,69.45
2023-05-14T07:23:30.330Z,69.43
2023-05-14T07:24:31.853Z,69.10
2023-05-14T07:25:34.382Z,68.59
2023-05-14T07:26:36.065Z,68.13
2023-05-14T07:27:38.593Z,68.66
2023-05-14T07:28:40.112Z,69.01
2023-05-14T07:29:42.595Z,70.18
2023-05-14T07:30:44.097Z,69.51
2023-05-14T07:31:46.553Z,69.07
2023-05-14T07:32:48.144Z,69.56
2023-05-14T07:33:50.819Z,70.07
2023-05-14T07:34:52.430Z,69.15
2023-05-14T07:35:56.264Z,69.37
2023-05-14T07:36:57.817Z,70.49
2023-05-14T07:38:00.326Z,70.43
2023-05-14T07:39:02.913Z,70.11
2023-05-14T07:40:05.314Z,70.12
2023-05-14T07:41:07.842Z,69.89
2023-05-14T07:42:09.317Z,68.77
2023-05-14T07:43:11.980Z,68.31
2023-05-14T07:44:13.547Z,69.65
2023-05-14T07:45:15.959Z,69.99
2023-05-14T07:46:17.971Z,70.40
2023-05-14T07:47:20.511Z,69.93
2023-05-14T07:48:22.262Z,69.95
2023-05-14T07:49:24.766Z,68.99
2023-05-14T07:50:26.668Z,67.93
2023-05-14T07:51:31.648Z,68.20
2023-05-14T07:52:33.176Z,68.02
2023-05-14T07:53:35.601Z,69.15
2023-05-14T07:54:37.223Z,69.06
2023-05-14T07:55:40.084Z,70.20
2023-05-14T07:56:41.620Z,71.13
2023-05-14T07:57:44.070Z,71.23
2023-05-14T07:58:45.797Z,71.15
2023-05-14T07:59:48.787Z,68.70
2023-05-14T08:00:50.530Z,68.90
2023-05-14T08:01:53.164Z,68.16
2023-05-14T08:02:55.528Z,67.35
2023-05-14T08:03:58.273Z,67.86
2023-05-14T08:04:59.861Z,69.21
2023-05-14T08:06:02.344Z,68.79
2023-05-14T08:07:05.411Z,68.12
2023-05-14T08:08:07.883Z,69.28
2023-05-14T08:09:09.695Z,68.41
2023-05-14T08:10:12.247Z,68.40
2023-05-14T08:11:13.815Z,67.26
2023-05-14T08:12:16.588Z,66.74
2023-05-14T08:13:18.125Z,66.43
2023-05-14T08:14:21.354Z,67.08
2023-05-14T08:15:24.564Z,67.33
2023-05-14T08:16:29.267Z,68.12
2023-05-14T08:17:30.859Z,66.97
2023-05-14T08:18:33.433Z,67.18
2023-05-14T08:19:35.067Z,66.95
2023-05-14T08:20:37.693Z,65.87
2023-05-14T08:21:39.225Z,65.13
2023-05-14T08:22:43.050Z,65.09
2023-05-14T08:23:44.605Z,65.32
2023-05-14T08:24:47.042Z,64.83
2023-05-14T08:25:48.580Z,64.26
2023-05-14T08:26:51.045Z,64.36
2023-05-14T08:27:54.105Z,63.98
2023-05-14T08:28:56.618Z,63.30
2023-05-14T08:29:58.152Z,64.42
2023-05-14T08:31:00.643Z,64.28
2023-05-14T08:32:08.721Z,63.20
2023-05-14T08:33:22.111Z,63.81
2023-05-14T08:34:23.621Z,63.54
2023-05-14T08:35:26.157Z,64.76
2023-05-14T08:36:27.720Z,64.19
2023-05-14T08:37:30.164Z,64.17
2023-05-14T08:38:33.967Z,65.25
2023-05-14T08:39:35.573Z,63.75
2023-05-14T08:40:38.160Z,63.26
2023-05-14T08:41:40.038Z,62.70
2023-05-14T08:42:44.771Z,61.50
2023-05-14T08:43:57.981Z,61.40
2023-05-14T08:45:01.929Z,61.19
2023-05-14T08:46:06.860Z,62.32
2023-05-14T08:47:09.007Z,63.11
2023-05-14T08:48:16.826Z,63.01
2023-05-14T08:49:29.355Z,62.50
2023-05-14T08:50:32.042Z,62.39
2023-05-14T08:51:33.786Z,62.43
2023-05-14T08:52:36.503Z,62.99
2023-05-14T08:53:40.408Z,62.73
2023-05-14T08:54:43.019Z,62.24
2023-05-14T08:55:46.011Z,62.45
2023-05-14T08:56:50.510Z,63.40
2023-05-14T08:57:53.963Z,61.08
2023-05-14T08:58:56.406Z,61.22
2023-05-14T08:59:58.515Z,60.14
2023-05-14T09:01:01.100Z,59.50
2023-05-14T09:02:06.302Z,61.02
2023-05-14T09:03:09.541Z,60.23
2023-05-14T09:04:11.585Z,60.61
2023-05-14T09:05:15.738Z,59.88
2023-05-14T09:06:18.334Z,59.12
2023-05-14T09:07:21.108Z,59.49
2023-05-14T09:08:22.994Z,59.48
2023-05-14T09:09:27.478Z,58.97
2023-05-14T09:10:29.007Z,60.39
2023-05-14T09:11:31.546Z,61.33
2023-05-14T09:12:33.995Z,61.81
2023-05-14T09:13:37.930Z,61.87
2023-05-14T09:14:40.510Z,60.70
2023-05-14T09:15:42.060Z,60.78
2023-05-14T09:16:46.812Z,60.44
2023-05-14T09:17:48.671Z,59.45
2023-05-14T09:18:52.320Z,58.17
2023-05-14T09:19:54.117Z,58.23
2023-05-14T09:20:56.797Z,57.04
2023-05-14T09:21:58.962Z,57.51
2023-05-14T09:23:01.707Z,58.79
2023-05-14T09:24:04.146Z,58.32
2023-05-14T09:25:11.903Z,59.21
2023-05-14T09:26:17.457Z,59.20
2023-05-14T09:27:21.311Z,59.03
2023-05-14T09:28:22.872Z,59.44
2023-05-14T09:29:25.691Z,59.15
2023-05-14T09:30:27.445Z,59.17
2023-05-14T09:31:30.869Z,57.93
2023-05-14T09:32:35.953Z,58.83
2023-05-14T09:33:38.613Z,58.91
2023-05-14T09:34:40.728Z,60.23
2023-05-14T09:35:43.443Z,59.11
2023-05-14T09:36:45.253Z,58.63
2023-05-14T09:37:49.483Z,59.71
2023-05-14T09:38:51.196Z,58.66
2023-05-14T09:39:53.651Z,56.42
2023-05-14T09:40:56.831Z,56.31
2023-05-14T09:41:59.297Z,59.29
2023-05-14T09:43:01.839Z,60.96
2023-05-14T09:44:06.110Z,62.22
2023-05-14T09:45:09.183Z,59.66
2023-05-14T09:46:11.660Z,58.88
2023-05-14T09:47:14.975Z,60.58
2023-05-14T09:48:17.535Z,59.09
2023-05-14T09:49:19.345Z,61.04
2023-05-14T09:50:22.497Z,63.35
2023-05-14T09:51:24.425Z,61.99
2023-05-14T09:52:27.205Z,61.31
2023-05-14T09:53:30.843Z,59.11
2023-05-14T09:54:33.382Z,62.04
2023-05-14T09:55:37.285Z,62.76
2023-05-14T09:56:40.265Z,58.92
2023-05-14T09:57:43.011Z,59.37
2023-05-14T09:58:44.570Z,58.26
2023-05-14T09:59:47.267Z,58.73
2023-05-14T10:00:49.101Z,58.19
2023-05-14T10:01:52.880Z,58.26
2023-05-14T10:02:57.782Z,59.18
2023-05-14T10:03:59.476Z,59.58
2023-05-14T10:05:04.910Z,59.98
2023-05-14T10:06:07.259Z,59.38
2023-05-14T10:07:10.366Z,59.99
2023-05-14T10:08:19.312Z,57.95
2023-05-14T10:09:26.264Z,56.15
2023-05-14T10:10:29.126Z,57.46
2023-05-14T10:11:34.490Z,58.17
2023-05-14T10:12:40.482Z,57.14
2023-05-14T10:13:46.430Z,56.67
2023-05-14T10:14:49.704Z,56.72
2023-05-14T10:15:58.581Z,56.70
2023-05-14T10:17:01.593Z,57.51
2023-05-14T10:18:08.957Z,56.12
2023-05-14T10:19:11.510Z,53.26
2023-05-14T10:20:17.098Z,52.58
2023-05-14T10:21:20.739Z,52.31
2023-05-14T10:22:24.824Z,50.75
2023-05-14T10:23:27.152Z,51.94
2023-05-14T10:24:30.521Z,51.01
2023-05-14T10:25:32.527Z,50.48
2023-05-14T10:26:38.445Z,50.31
2023-05-14T10:27:42.378Z,52.31
2023-05-14T10:28:45.061Z,52.93
2023-05-14T10:29:53.845Z,52.11
2023-05-14T10:30:56.445Z,52.76
2023-05-14T10:31:58.002Z,52.67
2023-05-14T10:33:08.284Z,54.61
2023-05-14T10:34:32.342Z,56.53
2023-05-14T10:35:52.310Z,56.17
2023-05-14T10:36:53.850Z,55.46
2023-05-14T10:37:57.721Z,54.19
2023-05-14T10:39:04.322Z,53.82
2023-05-14T10:40:08.296Z,52.01
2023-05-14T10:41:12.702Z,51.26
2023-05-14T10:42:18.061Z,50.84
2023-05-14T10:43:23.399Z,50.61
2023-05-14T10:44:24.886Z,50.18
2023-05-14T10:45:28.083Z,50.77
2023-05-14T10:46:29.794Z,49.34
2023-05-14T10:47:33.150Z,48.67
2023-05-14T10:48:36.579Z,48.56
2023-05-14T10:49:43.251Z,49.54
2023-05-14T10:50:48.986Z,50.00
2023-05-14T10:51:52.909Z,49.17
2023-05-14T10:52:57.041Z,48.80
2023-05-14T10:54:01.044Z,46.54
2023-05-14T10:55:07.601Z,44.85
2023-05-14T10:56:10.325Z,45.75
2023-05-14T10:57:15.459Z,45.62
2023-05-14T10:58:18.999Z,45.53
2023-05-14T10:59:27.059Z,45.66
2023-05-14T11:00:29.589Z,47.03
2023-05-14T11:01:31.957Z,48.79
2023-05-14T11:02:36.781Z,49.37
2023-05-14T11:03:42.679Z,50.81
2023-05-14T11:04:53.657Z,50.89
2023-05-14T11:05:56.624Z,51.04
2023-05-14T11:06:58.856Z,50.95
2023-05-14T11:08:05.484Z,50.99
2023-05-14T11:09:07.226Z,50.69
2023-05-14T11:10:11.192Z,51.65
2023-05-14T11:11:13.646Z,51.05
2023-05-14T11:12:15.234Z,50.85
2023-05-14T11:13:18.647Z,52.12
2023-05-14T11:14:20.262Z,52.45
2023-05-14T11:15:26.014Z,52.27
2023-05-14T11:16:30.711Z,52.95
2023-05-14T11:17:33.695Z,52.80
2023-05-14T11:18:38.460Z,52.00
2023-05-14T11:19:43.383Z,51.65
2023-05-14T11:20:45.878Z,52.15
2023-05-14T11:21:47.417Z,52.48
2023-05-14T11:22:51.490Z,53.46
2023-05-14T11:23:54.666Z,54.97
2023-05-14T11:24:57.443Z,53.49
2023-05-14T11:25:59.014Z,54.24
2023-05-14T11:27:01.477Z,56.25
2023-05-14T11:28:04.005Z,56.99
2023-05-14T11:29:05.524Z,56.74
2023-05-14T11:30:14.194Z,56.56
2023-05-14T11:31:17.186Z,56.36
2023-05-14T11:32:20.863Z,55.50
2023-05-14T11:33:22.441Z,55.62
2023-05-14T11:35:26.484Z,55.88
2023-05-14T11:36:28.902Z,55.54
2023-05-14T11:37:30.673Z,56.23
2023-05-14T11:38:33.189Z,56.55
2023-05-14T11:39:36.023Z,57.63
2023-05-14T11:40:38.459Z,56.70
2023-05-14T11:41:44.123Z,56.62
2023-05-14T11:42:46.733Z,56.58
2023-05-14T11:43:48.692Z,56.05
2023-05-14T11:44:54.093Z,56.10
2023-05-14T11:45:57.061Z,56.80
2023-05-14T11:47:01.445Z,57.23
2023-05-14T11:48:04.071Z,57.44
2023-05-14T11:49:06.601Z,57.68
2023-05-14T11:50:09.982Z,57.59
2023-05-14T11:51:11.538Z,56.76
2023-05-14T11:52:15.322Z,55.40
2023-05-14T11:53:18.573Z,55.51
2023-05-14T11:54:20.956Z,55.55
2023-05-14T11:55:23.416Z,56.36
2023-05-14T11:56:24.874Z,55.84
2023-05-14T11:57:27.313Z,55.97
2023-05-14T11:58:32.380Z,55.92
2023-05-14T11:59:35.050Z,55.52
2023-05-14T12:00:38.817Z,55.72
2023-05-14T12:01:41.396Z,56.55
2023-05-14T12:02:44.331Z,57.08
2023-05-14T12:03:47.375Z,56.27
2023-05-14T12:04:51.819Z,54.98
2023-05-14T12:05:57.938Z,55.58
2023-05-14T12:07:00.536Z,54.96
2023-05-14T12:08:02.941Z,54.44
2023-05-14T12:09:05.066Z,54.81
2023-05-14T12:10:08.907Z,54.47
2023-05-14T12:11:10.433Z,54.32
2023-05-14T12:12:13.592Z,54.65
2023-05-14T12:13:16.867Z,54.08
2023-05-14T12:14:20.330Z,54.36
2023-05-14T12:15:23.546Z,54.33
2023-05-14T12:16:30.713Z,54.72
2023-05-14T12:17:33.714Z,55.04
2023-05-14T12:18:37.209Z,55.76
2023-05-14T12:19:42.550Z,54.88
2023-05-14T12:20:47.214Z,54.68
2023-05-14T12:21:51.169Z,54.81
2023-05-14T12:22:52.714Z,54.89
2023-05-14T12:23:59.733Z,54.28
2023-05-14T12:25:01.270Z,54.00
2023-05-14T12:26:06.265Z,54.92
2023-05-14T12:27:10.406Z,54.66
2023-05-14T12:28:15.940Z,55.46
2023-05-14T12:29:17.490Z,54.98
2023-05-14T12:30:21.639Z,55.54
2023-05-14T12:31:36.783Z,56.11
2023-05-14T12:32:40.920Z,55.37
2023-05-14T12:33:44.045Z,53.70
2023-05-14T12:34:46.500Z,52.95
2023-05-14T12:35:48.964Z,52.19
2023-05-14T12:36:50.532Z,51.99
2023-05-14T12:37:52.985Z,54.08
2023-05-14T12:39:00.412Z,54.94
2023-05-14T12:40:02.039Z,55.33
2023-05-14T12:41:04.462Z,54.87
2023-05-14T12:42:06.418Z,53.69
2023-05-14T12:43:08.892Z,53.90
2023-05-14T12:44:10.436Z,52.34
2023-05-14T12:45:12.951Z,51.59
2023-05-14T12:46:14.684Z,50.70
2023-05-14T12:47:17.971Z,50.10
2023-05-14T12:48:19.581Z,49.86
2023-05-14T12:49:25.676Z,49.93
2023-05-14T12:50:27.380Z,48.49
2023-05-14T12:51:30.044Z,47.24
2023-05-14T12:53:36.941Z,47.59
2023-05-14T12:54:42.308Z,47.48
2023-05-14T12:55:45.308Z,48.98
2023-05-14T12:56:46.936Z,49.51
2023-05-14T12:57:49.496Z,48.81
2023-05-14T12:58:50.988Z,48.40
2023-05-14T12:59:53.478Z,49.21
2023-05-14T13:00:55.049Z,50.07
2023-05-14T13:01:57.608Z,49.86
2023-05-14T13:02:59.188Z,49.42
2023-05-14T13:04:01.756Z,49.16
2023-05-14T13:05:05.809Z,48.65
2023-05-14T13:06:08.960Z,49.29
2023-05-14T13:07:10.721Z,49.17
2023-05-14T13:08:14.813Z,49.81
2023-05-14T13:09:17.282Z,49.23
2023-05-14T13:10:18.976Z,49.63
2023-05-14T13:11:21.734Z,51.16
2023-05-14T13:12:23.675Z,50.69
2023-05-14T13:13:26.282Z,50.03
2023-05-14T13:14:27.781Z,50.01
2023-05-14T13:15:31.549Z,51.44
2023-05-14T13:16:34.053Z,50.55
2023-05-14T13:17:36.034Z,49.61
2023-05-14T13:18:38.474Z,48.70
2023-05-14T13:19:39.965Z,47.05
2023-05-14T13:20:43.757Z,48.00
2023-05-14T13:21:46.209Z,47.47
2023-05-14T13:22:47.689Z,47.26
2023-05-14T13:23:50.637Z,47.58
2023-05-14T13:24:52.123Z,48.03
2023-05-14T13:25:54.549Z,49.30
2023-05-14T13:26:56.069Z,49.99
2023-05-14T13:27:59.587Z,50.38
2023-05-14T13:29:01.049Z,50.86
2023-05-14T13:30:03.972Z,50.37
2023-05-14T13:31:08.009Z,51.08
2023-05-14T13:32:10.868Z,51.81
2023-05-14T13:33:12.429Z,51.11
2023-05-14T13:34:14.909Z,51.70